createdAt,value
2017-05-03T00:02:01.229Z,8.56
2017-05-03T00:04:28.597Z,9.22
2017-05-03T00:06:55.878Z,9.22
2017-05-03T00:09:23.198Z,10.52
2017-05-03T00:11:50.553Z,10.00
2017-05-03T00:14:17.905Z,9.70
2017-05-03T00:16:45.199Z,9.76
2017-05-03T00:19:12.582Z,10.48
2017-05-03T00:21:39.478Z,10.26
2017-05-03T00:24:06.835Z,10.00
2017-05-03T00:26:34.248Z,10.52
2017-05-03T00:29:01.634Z,10.38
2017-05-03T00:31:28.990Z,11.28
2017-05-03T00:33:56.348Z,10.32
2017-05-03T00:36:23.697Z,10.52
2017-05-03T00:38:50.987Z,10.30
2017-05-03T00:41:18.419Z,10.80
2017-05-03T00:43:45.766Z,9.68
2017-05-03T00:46:13.075Z,11.44
2017-05-03T00:48:40.785Z,12.20
2017-05-03T00:51:08.071Z,10.78
2017-05-03T00:53:35.395Z,9.84
2017-05-03T00:56:02.727Z,10.94
2017-05-03T00:58:30.010Z,12.18
2017-05-03T01:00:57.362Z,11.96
2017-05-03T01:03:24.686Z,12.56
2017-05-03T01:05:51.974Z,12.54
2017-05-03T01:08:19.327Z,13.82
2017-05-03T01:10:46.689Z,13.84
2017-05-03T01:13:13.980Z,12.60
2017-05-03T01:15:41.705Z,12.96
2017-05-03T01:18:09.058Z,12.60
2017-05-03T01:20:35.955Z,13.42
2017-05-03T01:23:03.250Z,12.84
2017-05-03T01:25:30.614Z,13.06
2017-05-03T01:27:57.501Z,14.20
2017-05-03T01:30:25.159Z,13.44
2017-05-03T01:32:52.484Z,13.64
2017-05-03T01:35:19.852Z,15.24
2017-05-03T01:37:47.135Z,13.16
2017-05-03T01:40:14.842Z,14.26
2017-05-03T01:42:42.214Z,13.68
2017-05-03T01:45:09.505Z,13.42
2017-05-03T01:47:37.210Z,13.74
2017-05-03T01:50:04.507Z,12.96
2017-05-03T01:52:31.426Z,14.86
2017-05-03T01:54:58.761Z,15.30
2017-05-03T01:57:26.154Z,14.58
2017-05-03T01:59:53.447Z,13.46
2017-05-03T02:02:20.787Z,13.36
2017-05-03T02:04:47.680Z,14.24
2017-05-03T02:07:14.998Z,14.80
2017-05-03T02:09:42.690Z,15.74
2017-05-03T02:12:10.004Z,15.54
2017-05-03T02:14:37.292Z,15.98
2017-05-03T02:17:04.677Z,14.92
2017-05-03T02:19:32.041Z,15.14
2017-05-03T02:21:59.394Z,15.24
2017-05-03T02:24:26.446Z,14.20
2017-05-03T02:26:53.746Z,13.76
2017-05-03T02:29:21.405Z,14.48
2017-05-03T02:31:49.138Z,14.90
2017-05-03T02:34:16.473Z,13.74
2017-05-03T02:36:43.362Z,16.14
2017-05-03T02:39:10.782Z,13.84
2017-05-03T02:41:38.138Z,15.74
2017-05-03T02:44:05.490Z,14.88
2017-05-03T02:46:32.853Z,13.98
2017-05-03T02:49:00.150Z,14.30
2017-05-03T02:51:27.802Z,14.50
2017-05-03T02:53:55.135Z,15.04
2017-05-03T02:56:22.421Z,14.82
2017-05-03T02:58:49.306Z,15.08
2017-05-03T03:01:16.634Z,14.74
2017-05-03T03:03:44.286Z,14.76
2017-05-03T03:06:11.186Z,15.24
2017-05-03T03:08:38.538Z,14.38
2017-05-03T03:11:05.817Z,15.62
2017-05-03T03:13:32.809Z,14.48
2017-05-03T03:16:00.138Z,16.06
2017-05-03T03:18:27.423Z,15.66
2017-05-03T03:20:54.706Z,14.70
2017-05-03T03:23:22.045Z,16.10
2017-05-03T03:25:49.349Z,15.38
2017-05-03T03:28:16.331Z,16.00
2017-05-03T03:30:43.679Z,14.80
2017-05-03T03:33:11.042Z,14.50
2017-05-03T03:35:37.934Z,12.60
2017-05-03T03:38:05.637Z,14.36
2017-05-03T03:40:32.923Z,13.92
2017-05-03T03:43:00.210Z,14.70
2017-05-03T03:45:27.906Z,15.42
2017-05-03T03:47:55.279Z,14.84
2017-05-03T03:50:22.981Z,13.52
2017-05-03T03:52:50.678Z,14.66
2017-05-03T03:55:18.061Z,13.82
2017-05-03T03:57:45.346Z,13.34
2017-05-03T04:00:12.686Z,13.10
2017-05-03T04:02:39.986Z,13.04
2017-05-03T04:05:07.381Z,13.08
2017-05-03T04:07:34.695Z,12.28
2017-05-03T04:10:02.409Z,13.12
2017-05-03T04:12:29.450Z,12.42
2017-05-03T04:14:56.811Z,12.28
2017-05-03T04:17:24.109Z,12.84
2017-05-03T04:19:51.830Z,12.12
2017-05-03T04:22:19.122Z,13.12
2017-05-03T04:24:46.845Z,11.98
2017-05-03T04:27:14.617Z,12.32
2017-05-03T04:29:41.915Z,13.02
2017-05-03T04:32:09.629Z,12.26
2017-05-03T04:34:36.963Z,12.74
2017-05-03T04:37:03.849Z,12.70
2017-05-03T04:39:31.138Z,14.42
2017-05-03T04:41:58.071Z,13.04
2017-05-03T04:44:25.798Z,13.06
2017-05-03T04:46:53.094Z,12.50
2017-05-03T04:49:20.803Z,12.60
2017-05-03T04:51:47.694Z,12.08
2017-05-03T04:54:14.982Z,13.30
2017-05-03T04:56:42.338Z,13.18
2017-05-03T04:59:09.621Z,12.62
2017-05-03T05:01:36.905Z,14.46
2017-05-03T05:04:04.233Z,15.60
2017-05-03T05:06:31.590Z,15.24
2017-05-03T05:08:58.873Z,14.46
2017-05-03T05:11:26.302Z,16.06
2017-05-03T05:13:53.594Z,14.94
2017-05-03T05:16:21.259Z,16.90
2017-05-03T05:18:48.986Z,13.44
2017-05-03T05:21:16.276Z,15.14
2017-05-03T05:23:43.166Z,16.10
2017-05-03T05:26:10.521Z,16.08
2017-05-03T05:28:37.891Z,16.44
2017-05-03T05:31:05.178Z,16.86
2017-05-03T05:33:32.506Z,18.94
2017-05-03T05:35:59.415Z,18.76
2017-05-03T05:38:26.698Z,19.98
2017-05-03T05:40:54.037Z,21.44
2017-05-03T05:43:21.379Z,19.56
2017-05-03T05:45:48.739Z,18.98
2017-05-03T05:48:16.077Z,24.14
2017-05-03T05:50:43.362Z,22.46
2017-05-03T05:53:11.518Z,22.46
2017-05-03T05:55:38.846Z,22.92
2017-05-03T05:58:06.225Z,23.78
2017-05-03T06:00:33.586Z,21.92
2017-05-03T06:03:00.941Z,22.50
2017-05-03T06:05:28.301Z,25.14
2017-05-03T06:07:55.658Z,23.92
2017-05-03T06:10:23.011Z,25.86
2017-05-03T06:12:50.295Z,29.54
2017-05-03T06:15:17.585Z,29.70
2017-05-03T06:17:44.975Z,27.52
2017-05-03T06:20:12.254Z,30.72
2017-05-03T06:22:39.590Z,27.10
2017-05-03T06:25:06.946Z,30.02
2017-05-03T06:27:34.297Z,32.10
2017-05-03T06:30:01.581Z,30.78
2017-05-03T06:32:28.599Z,30.56
2017-05-03T06:34:55.962Z,27.80
2017-05-03T06:37:23.251Z,33.62
2017-05-03T06:39:50.270Z,33.74
2017-05-03T06:42:17.559Z,31.14
2017-05-03T06:44:44.870Z,31.44
2017-05-03T06:47:12.201Z,29.52
2017-05-03T06:49:39.550Z,30.48
2017-05-03T06:52:06.838Z,30.68
2017-05-03T06:54:34.185Z,31.16
2017-05-03T06:57:01.546Z,27.04
2017-05-03T06:59:28.898Z,27.86
2017-05-03T07:01:56.231Z,23.70
2017-05-03T07:04:23.614Z,25.58
2017-05-03T07:06:50.962Z,23.80
2017-05-03T07:09:18.294Z,25.08
2017-05-03T07:11:45.678Z,23.90
2017-05-03T07:14:13.073Z,25.60
2017-05-03T07:16:40.804Z,22.78
2017-05-03T07:19:08.094Z,21.82
2017-05-03T07:21:36.086Z,22.42
2017-05-03T07:24:03.282Z,24.52
2017-05-03T07:26:30.581Z,25.12
2017-05-03T07:28:58.294Z,25.20
2017-05-03T07:31:25.665Z,25.20
2017-05-03T07:33:53.011Z,25.78
2017-05-03T07:36:20.303Z,25.26
2017-05-03T07:38:48.039Z,26.40
2017-05-03T07:41:15.381Z,28.12
2017-05-03T07:43:42.666Z,25.20
2017-05-03T07:46:10.194Z,28.26
2017-05-03T07:48:37.526Z,27.06
2017-05-03T07:51:04.905Z,28.92
2017-05-03T07:53:32.212Z,28.24
2017-05-03T07:55:59.917Z,25.48
2017-05-03T07:58:27.202Z,25.42
2017-05-03T08:00:54.537Z,25.40
2017-05-03T08:03:21.865Z,25.98
2017-05-03T08:05:49.249Z,24.12
2017-05-03T08:08:16.530Z,25.12
2017-05-03T08:10:43.957Z,28.68
2017-05-03T08:13:10.905Z,27.52
2017-05-03T08:15:37.794Z,27.28
2017-05-03T08:18:05.118Z,26.42
2017-05-03T08:20:32.404Z,29.64
2017-05-03T08:23:00.165Z,25.84
2017-05-03T08:25:27.861Z,24.36
2017-05-03T08:27:55.247Z,26.42
2017-05-03T08:30:22.540Z,26.88
2017-05-03T08:32:50.263Z,25.38
2017-05-03T08:35:17.210Z,23.98
2017-05-03T08:37:45.015Z,27.24
2017-05-03T08:40:12.433Z,28.80
2017-05-03T08:42:39.713Z,29.42
2017-05-03T08:45:07.003Z,26.70
2017-05-03T08:47:34.335Z,28.66
2017-05-03T08:50:01.618Z,33.46
2017-05-03T08:52:28.518Z,30.18
2017-05-03T08:54:55.847Z,26.68
2017-05-03T08:57:23.194Z,27.72
2017-05-03T08:59:51.283Z,26.12
2017-05-03T09:02:18.635Z,25.18
2017-05-03T09:04:46.002Z,24.90
2017-05-03T09:07:13.354Z,23.46
2017-05-03T09:09:40.693Z,24.52
2017-05-03T09:12:07.970Z,23.34
2017-05-03T09:14:35.253Z,24.00
2017-05-03T09:17:02.183Z,23.22
2017-05-03T09:19:29.514Z,23.14
2017-05-03T09:21:56.796Z,21.06
2017-05-03T09:24:23.755Z,21.38
2017-05-03T09:26:51.038Z,23.02
2017-05-03T09:29:18.391Z,20.64
2017-05-03T09:31:45.290Z,22.22
2017-05-03T09:34:12.766Z,21.00
2017-05-03T09:36:39.706Z,22.08
2017-05-03T09:39:06.987Z,18.26
2017-05-03T09:41:34.265Z,20.30
2017-05-03T09:44:02.023Z,22.14
2017-05-03T09:46:29.394Z,20.64
2017-05-03T09:48:56.344Z,19.28
2017-05-03T09:51:23.685Z,18.36
2017-05-03T09:53:51.055Z,18.28
2017-05-03T09:56:18.345Z,18.04
2017-05-03T09:58:45.666Z,17.18
2017-05-03T10:01:12.948Z,17.96
2017-05-03T10:03:40.230Z,17.64
2017-05-03T10:06:07.154Z,17.20
2017-05-03T10:08:34.483Z,14.96
2017-05-03T10:11:01.827Z,15.94
2017-05-03T10:13:29.165Z,13.36
2017-05-03T10:15:56.457Z,14.08
2017-05-03T10:18:23.833Z,13.58
2017-05-03T10:20:50.761Z,12.14
2017-05-03T10:23:18.097Z,12.90
2017-05-03T10:25:45.369Z,12.62
2017-05-03T10:28:12.806Z,13.70
2017-05-03T10:30:40.165Z,15.32
2017-05-03T10:33:07.441Z,14.16
2017-05-03T10:35:34.778Z,13.96
2017-05-03T10:38:02.063Z,12.00
2017-05-03T10:40:29.350Z,13.16
2017-05-03T10:42:56.345Z,12.74
2017-05-03T10:45:23.625Z,15.04
2017-05-03T10:47:50.551Z,14.54
2017-05-03T10:50:17.833Z,12.60
2017-05-03T10:52:44.756Z,16.68
2017-05-03T10:55:12.086Z,13.00
2017-05-03T10:57:39.369Z,14.32
2017-05-03T11:00:06.705Z,14.18
2017-05-03T11:02:34.088Z,11.72
2017-05-03T11:05:01.367Z,13.12
2017-05-03T11:07:28.350Z,14.18
2017-05-03T11:09:55.665Z,11.46
2017-05-03T11:12:23.318Z,11.34
2017-05-03T11:14:51.021Z,10.96
2017-05-03T11:17:18.390Z,10.80
2017-05-03T11:19:45.747Z,11.78
2017-05-03T11:22:13.140Z,11.10
2017-05-03T11:24:40.422Z,9.96
2017-05-03T11:27:07.812Z,10.84
2017-05-03T11:29:35.162Z,11.66
2017-05-03T11:32:02.525Z,12.08
2017-05-03T11:34:29.814Z,11.96
2017-05-03T11:36:57.153Z,10.42
2017-05-03T11:39:24.441Z,10.96
2017-05-03T11:41:51.327Z,9.80
2017-05-03T11:44:18.284Z,11.20
2017-05-03T11:46:45.169Z,11.90
2017-05-03T11:49:12.082Z,11.02
2017-05-03T11:51:39.777Z,10.56
2017-05-03T11:54:07.141Z,11.34
2017-05-03T11:56:34.423Z,12.48
2017-05-03T11:59:01.955Z,14.74
2017-05-03T12:01:29.247Z,15.06
2017-05-03T12:03:56.528Z,13.56
2017-05-03T12:06:23.881Z,13.86
2017-05-03T12:08:51.167Z,14.60
2017-05-03T12:11:18.169Z,15.68
2017-05-03T12:13:45.533Z,13.64
2017-05-03T12:16:12.471Z,14.24
2017-05-03T12:18:39.749Z,13.96
2017-05-03T12:21:06.765Z,13.64
2017-05-03T12:23:34.046Z,13.58
2017-05-03T12:26:01.330Z,12.90
2017-05-03T12:28:29.023Z,14.00
2017-05-03T12:30:56.305Z,12.64
2017-05-03T12:33:23.593Z,12.58
2017-05-03T12:35:50.529Z,13.14
2017-05-03T12:38:17.815Z,11.56
2017-05-03T12:40:45.201Z,12.76
2017-05-03T12:43:12.563Z,12.06
2017-05-03T12:45:39.914Z,11.96
2017-05-03T12:48:07.202Z,10.24
2017-05-03T12:50:34.624Z,9.20
2017-05-03T12:53:01.909Z,7.92
2017-05-03T12:55:29.188Z,7.90
2017-05-03T12:57:56.898Z,7.88
2017-05-03T13:00:24.258Z,6.74
2017-05-03T13:02:51.540Z,6.64
2017-05-03T13:05:18.857Z,6.56
2017-05-03T13:07:46.219Z,5.92
2017-05-03T13:10:13.581Z,5.58
2017-05-03T13:12:40.943Z,5.70
2017-05-03T13:15:07.822Z,6.22
2017-05-03T13:17:35.113Z,5.86
2017-05-03T13:20:02.437Z,5.36
2017-05-03T13:22:30.125Z,5.36
2017-05-03T13:24:57.417Z,5.00
2017-05-03T13:27:24.754Z,5.50
2017-05-03T13:29:52.037Z,4.10
2017-05-03T13:32:19.322Z,4.20
2017-05-03T13:34:47.033Z,4.14
2017-05-03T13:37:14.398Z,3.18
2017-05-03T13:39:41.672Z,3.42
2017-05-03T13:42:09.004Z,3.10
2017-05-03T13:44:35.897Z,2.80
2017-05-03T13:47:03.618Z,3.24
2017-05-03T13:49:30.969Z,3.50
2017-05-03T13:51:58.258Z,2.56
2017-05-03T13:54:25.563Z,2.98
2017-05-03T13:56:52.906Z,3.44
2017-05-03T13:59:20.191Z,2.82
2017-05-03T14:01:47.474Z,2.98
2017-05-03T14:04:14.924Z,3.98
2017-05-03T14:06:42.299Z,3.84
2017-05-03T14:09:09.964Z,4.68
2017-05-03T14:11:37.340Z,5.54
2017-05-03T14:14:04.220Z,6.32
2017-05-03T14:16:31.501Z,5.74
2017-05-03T14:18:58.842Z,6.78
2017-05-03T14:21:26.187Z,6.24
2017-05-03T14:23:53.480Z,7.86
2017-05-03T14:26:20.810Z,8.30
2017-05-03T14:28:48.170Z,8.50
2017-05-03T14:31:15.452Z,8.52
2017-05-03T14:33:43.146Z,8.66
2017-05-03T14:36:10.546Z,9.38
2017-05-03T14:38:37.830Z,8.42
2017-05-03T14:41:05.518Z,8.02
2017-05-03T14:43:32.940Z,8.78
2017-05-03T14:46:00.261Z,8.58
2017-05-03T14:48:27.579Z,8.64
2017-05-03T14:50:57.153Z,8.54
2017-05-03T14:53:24.585Z,10.22
2017-05-03T14:55:51.929Z,9.34
2017-05-03T14:58:19.216Z,9.62
2017-05-03T15:00:46.127Z,9.78
2017-05-03T15:03:13.485Z,8.76
2017-05-03T15:05:40.763Z,9.10
2017-05-03T15:08:08.041Z,9.08
2017-05-03T15:10:35.041Z,7.92
2017-05-03T15:13:02.440Z,8.46
2017-05-03T15:15:29.321Z,6.58
2017-05-03T15:17:56.703Z,6.72
2017-05-03T15:20:23.982Z,6.82
2017-05-03T15:22:50.883Z,5.18
2017-05-03T15:25:18.523Z,5.08
2017-05-03T15:27:45.921Z,5.58
2017-05-03T15:30:13.198Z,4.72
2017-05-03T15:32:40.610Z,4.40
2017-05-03T15:35:07.888Z,3.86
2017-05-03T15:37:35.162Z,3.80
2017-05-03T15:40:02.578Z,3.52
2017-05-03T15:42:29.933Z,3.00
2017-05-03T15:44:57.289Z,3.96
2017-05-03T15:47:24.682Z,4.20
2017-05-03T15:49:51.962Z,3.20
2017-05-03T15:52:19.616Z,3.04
2017-05-03T15:54:47.313Z,3.52
2017-05-03T15:57:14.693Z,2.62
2017-05-03T15:59:41.970Z,2.62
2017-05-03T16:02:09.287Z,2.82
2017-05-03T16:04:36.568Z,2.74
2017-05-03T16:07:03.902Z,2.38
2017-05-03T16:09:31.261Z,3.06
2017-05-03T16:11:58.537Z,3.62
2017-05-03T16:14:25.871Z,2.82
2017-05-03T16:16:53.242Z,3.44
2017-05-03T16:19:20.581Z,3.56
2017-05-03T16:21:47.853Z,3.50
2017-05-03T16:24:15.179Z,3.30
2017-05-03T16:26:42.062Z,3.80
2017-05-03T16:29:09.430Z,3.48
2017-05-03T16:31:36.769Z,3.78
2017-05-03T16:34:04.143Z,2.40
2017-05-03T16:36:31.422Z,3.28
2017-05-03T16:38:58.766Z,2.96
2017-05-03T16:41:25.654Z,2.74
2017-05-03T16:43:53.052Z,3.18
2017-05-03T16:46:20.469Z,3.20
2017-05-03T16:48:47.354Z,3.14
2017-05-03T16:51:14.637Z,2.90
2017-05-03T16:53:41.561Z,3.42
2017-05-03T16:56:09.226Z,1.90
2017-05-03T16:58:36.983Z,2.30
2017-05-03T17:01:04.420Z,2.24
2017-05-03T17:03:31.758Z,3.10
2017-05-03T17:05:59.052Z,2.18
2017-05-03T17:08:26.475Z,2.20
2017-05-03T17:10:53.762Z,2.00
2017-05-03T17:13:21.045Z,2.22
2017-05-03T17:15:48.366Z,2.14
2017-05-03T17:18:15.250Z,2.14
2017-05-03T17:20:42.526Z,2.22
2017-05-03T17:23:09.956Z,2.62
2017-05-03T17:25:37.250Z,2.10
2017-05-03T17:28:04.565Z,2.52
2017-05-03T17:30:31.493Z,2.74
2017-05-03T17:32:58.968Z,3.62
2017-05-03T17:35:26.325Z,2.40
2017-05-03T17:37:53.723Z,3.06
2017-05-03T17:40:20.996Z,2.40
2017-05-03T17:42:48.659Z,2.36
2017-05-03T17:45:15.590Z,2.20
2017-05-03T17:47:43.249Z,2.34
2017-05-03T17:50:10.525Z,2.98
2017-05-03T17:52:37.849Z,3.00
2017-05-03T17:55:05.130Z,1.70
2017-05-03T17:57:32.819Z,1.76
2017-05-03T17:59:59.747Z,1.84
2017-05-03T18:02:27.042Z,1.76
2017-05-03T18:04:54.396Z,1.76
2017-05-03T18:07:21.826Z,1.38
2017-05-03T18:09:49.154Z,2.12
2017-05-03T18:12:16.822Z,1.60
2017-05-03T18:14:43.750Z,1.68
2017-05-03T18:17:11.067Z,1.70
2017-05-03T18:19:38.023Z,1.70
2017-05-03T18:22:05.346Z,2.20
2017-05-03T18:24:32.728Z,1.90
2017-05-03T18:27:00.082Z,1.82
2017-05-03T18:29:27.015Z,2.34
2017-05-03T18:31:54.290Z,1.92
2017-05-03T18:34:21.617Z,1.92
2017-05-03T18:36:48.976Z,2.60
2017-05-03T18:39:16.322Z,1.90
2017-05-03T18:41:43.660Z,2.08
2017-05-03T18:44:11.045Z,3.82
2017-05-03T18:46:38.326Z,2.40
2017-05-03T18:49:05.661Z,2.48
2017-05-03T18:51:32.944Z,2.64
2017-05-03T18:54:00.257Z,2.32
2017-05-03T18:56:27.587Z,3.32
2017-05-03T18:58:54.867Z,2.54
2017-05-03T19:01:21.753Z,2.30
2017-05-03T19:03:49.201Z,2.70
2017-05-03T19:06:16.534Z,2.92
2017-05-03T19:08:43.459Z,2.38
2017-05-03T19:11:10.869Z,2.60
2017-05-03T19:13:38.601Z,3.20
2017-05-03T19:16:05.883Z,3.48
2017-05-03T19:18:33.302Z,2.96
2017-05-03T19:21:00.595Z,2.58
2017-05-03T19:23:27.917Z,3.12
2017-05-03T19:25:55.293Z,4.52
2017-05-03T19:28:22.574Z,3.86
2017-05-03T19:30:50.223Z,3.24
2017-05-03T19:33:17.650Z,4.28
2017-05-03T19:35:44.930Z,3.34
2017-05-03T19:38:12.257Z,3.84
2017-05-03T19:40:39.214Z,3.52
2017-05-03T19:43:06.563Z,3.72
2017-05-03T19:45:33.851Z,3.22
2017-05-03T19:48:01.189Z,3.80
2017-05-03T19:50:28.465Z,3.66
2017-05-03T19:52:56.140Z,3.78
2017-05-03T19:55:23.961Z,3.10
2017-05-03T19:57:51.235Z,3.38
2017-05-03T20:00:18.518Z,4.38
2017-05-03T20:02:46.210Z,3.98
2017-05-03T20:05:13.492Z,3.36
2017-05-03T20:07:40.778Z,3.72
2017-05-03T20:10:08.521Z,3.78
2017-05-03T20:12:35.409Z,3.90
2017-05-03T20:15:02.700Z,4.00
2017-05-03T20:17:29.650Z,4.10
2017-05-03T20:19:57.003Z,3.90
2017-05-03T20:22:24.294Z,3.60
2017-05-03T20:24:51.667Z,3.82
2017-05-03T20:27:18.961Z,4.52
2017-05-03T20:29:46.296Z,3.60
2017-05-03T20:32:13.627Z,3.64
2017-05-03T20:34:40.910Z,4.28
2017-05-03T20:37:08.190Z,3.88
2017-05-03T20:39:35.518Z,4.28
2017-05-03T20:42:02.801Z,4.30
2017-05-03T20:44:30.073Z,4.02
2017-05-03T20:46:57.393Z,3.74
2017-05-03T20:49:24.759Z,4.02
2017-05-03T20:51:52.110Z,3.90
2017-05-03T20:54:19.655Z,4.76
2017-05-03T20:56:47.375Z,4.10
2017-05-03T20:59:14.714Z,5.32
2017-05-03T21:01:42.065Z,5.06
2017-05-03T21:04:09.345Z,4.26
2017-05-03T21:06:36.765Z,5.02
2017-05-03T21:09:04.129Z,5.00
2017-05-03T21:11:31.481Z,4.48
2017-05-03T21:13:58.827Z,5.04
2017-05-03T21:16:26.566Z,5.12
2017-05-03T21:18:53.849Z,4.72
2017-05-03T21:21:21.561Z,4.76
2017-05-03T21:23:48.914Z,4.66
2017-05-03T21:26:16.273Z,4.98
2017-05-03T21:28:43.569Z,4.42
2017-05-03T21:31:10.496Z,5.88
2017-05-03T21:33:37.778Z,6.46
2017-05-03T21:36:05.050Z,5.22
2017-05-03T21:38:32.071Z,5.68
2017-05-03T21:40:59.122Z,4.94
2017-05-03T21:43:26.415Z,5.42
2017-05-03T21:45:53.829Z,5.68
2017-05-03T21:48:21.102Z,5.40
2017-05-03T21:50:48.381Z,16.06
2017-05-03T21:53:15.766Z,6.42
2017-05-03T21:55:43.143Z,6.48
2017-05-03T21:58:10.501Z,5.92
2017-05-03T22:00:37.984Z,6.78
2017-05-03T22:03:04.893Z,5.82
2017-05-03T22:05:32.170Z,6.24
2017-05-03T22:07:59.489Z,6.54
2017-05-03T22:10:26.369Z,6.62
2017-05-03T22:12:53.645Z,7.50
2017-05-03T22:15:21.341Z,5.94
2017-05-03T22:17:48.226Z,6.44
2017-05-03T22:20:15.561Z,7.38
2017-05-03T22:22:43.022Z,6.36
2017-05-03T22:25:10.304Z,8.20
2017-05-03T22:27:37.643Z,7.04
2017-05-03T22:30:04.969Z,6.76
2017-05-03T22:32:32.251Z,7.26
2017-05-03T22:34:59.605Z,6.36
2017-05-03T22:37:26.971Z,6.08
2017-05-03T22:39:54.421Z,7.48
2017-05-03T22:42:21.709Z,6.98
2017-05-03T22:44:49.141Z,6.70
2017-05-03T22:47:16.515Z,8.10
2017-05-03T22:49:43.805Z,6.50
2017-05-03T22:52:11.611Z,6.62
2017-05-03T22:54:38.964Z,9.96
2017-05-03T22:57:06.322Z,8.72
2017-05-03T22:59:33.990Z,7.64
2017-05-03T23:02:01.351Z,7.20
2017-05-03T23:04:28.638Z,7.86
2017-05-03T23:06:55.962Z,8.86
2017-05-03T23:09:23.311Z,9.14
2017-05-03T23:11:50.675Z,9.38
2017-05-03T23:14:18.126Z,11.06
2017-05-03T23:16:45.482Z,11.02
2017-05-03T23:19:12.814Z,9.66
2017-05-03T23:21:39.698Z,11.00
2017-05-03T23:24:07.045Z,12.26
2017-05-03T23:26:34.366Z,9.90
2017-05-03T23:29:01.333Z,10.44
2017-05-03T23:31:28.613Z,9.68
2017-05-03T23:33:55.950Z,12.26
2017-05-03T23:36:23.321Z,10.38
2017-05-03T23:38:50.614Z,11.44
2017-05-03T23:41:18.301Z,10.56
2017-05-03T23:43:45.596Z,11.74
2017-05-03T23:46:12.873Z,12.42
2017-05-03T23:48:40.595Z,11.84
2017-05-03T23:51:08.196Z,11.62
2017-05-03T23:53:35.513Z,12.06
2017-05-03T23:56:02.557Z,11.64
2017-05-03T23:58:29.865Z,12.68
